createdAt,value
2023-01-10T00:01:12.497Z,100304.00
2023-01-10T00:06:15.017Z,100316.09
2023-01-10T00:11:35.264Z,100328.13
2023-01-10T00:16:39.512Z,100339.22
2023-01-10T00:21:42.015Z,100354.50
2023-01-10T00:26:47.584Z,100355.34
2023-01-10T00:31:51.624Z,100374.34
2023-01-10T00:36:54.156Z,100374.44
2023-01-10T00:42:14.505Z,100386.69
2023-01-10T00:47:18.700Z,100402.38
2023-01-10T00:52:21.360Z,100405.88
2023-01-10T00:57:23.837Z,100399.53
2023-01-10T01:02:27.853Z,100422.97
2023-01-10T01:07:30.444Z,100425.38
2023-01-10T01:12:32.927Z,100435.63
2023-01-10T01:17:36.762Z,100439.97
2023-01-10T01:22:39.250Z,100454.72
2023-01-10T01:27:41.788Z,100454.72
2023-01-10T01:32:45.652Z,100468.72
2023-01-10T01:37:48.483Z,100481.97
2023-01-10T01:42:55.535Z,100495.03
2023-01-10T01:48:04.700Z,100496.75
2023-01-10T01:53:12.926Z,100506.19
2023-01-10T01:58:19.511Z,100513.13
2023-01-10T02:03:23.699Z,100523.56
2023-01-10T02:08:26.270Z,100536.81
2023-01-10T02:13:29.212Z,100536.81
2023-01-10T02:18:33.079Z,100543.03
2023-01-10T02:24:07.176Z,100540.63
2023-01-10T02:29:40.153Z,100558.13
2023-01-10T02:34:55.117Z,100561.66
2023-01-10T02:40:03.097Z,100574.00
2023-01-10T02:45:11.855Z,100569.59
2023-01-10T02:50:44.144Z,100557.13
2023-01-10T02:56:04.051Z,100571.50
2023-01-10T03:01:15.644Z,100583.13
2023-01-10T03:06:30.707Z,100591.59
2023-01-10T03:11:43.921Z,100608.16
2023-01-10T03:16:52.476Z,100606.44
2023-01-10T03:22:00.356Z,100609.88
2023-01-10T03:27:08.403Z,100625.44
2023-01-10T03:32:14.636Z,100628.94
2023-01-10T03:37:26.099Z,100630.78
2023-01-10T03:42:55.079Z,100648.22
2023-01-10T03:48:00.126Z,100665.81
2023-01-10T03:53:04.519Z,100681.41
2023-01-10T03:58:07.323Z,100685.72
2023-01-10T04:03:11.029Z,100694.47
2023-01-10T04:08:14.967Z,100707.63
2023-01-10T04:13:17.591Z,100713.97
2023-01-10T04:18:20.169Z,100719.50
2023-01-10T04:23:23.986Z,100730.06
2023-01-10T04:28:26.491Z,100739.72
2023-01-10T04:33:29.325Z,100741.63
2023-01-10T04:38:33.315Z,100745.94
2023-01-10T04:43:35.830Z,100752.19
2023-01-10T04:48:38.307Z,100765.47
2023-01-10T04:53:42.335Z,100770.47
2023-01-10T04:58:45.062Z,100791.47
2023-01-10T05:03:48.328Z,100804.44
2023-01-10T05:08:52.171Z,100815.81
2023-01-10T05:13:54.649Z,100820.13
2023-01-10T05:18:57.167Z,100827.16
2023-01-10T05:24:00.954Z,100839.53
2023-01-10T05:29:04.024Z,100846.69
2023-01-10T05:34:06.557Z,100857.94
2023-01-10T05:39:10.413Z,100863.94
2023-01-10T05:44:14.788Z,100864.78
2023-01-10T05:49:17.381Z,100877.59
2023-01-10T05:54:21.265Z,100879.88
2023-01-10T05:59:30.880Z,100897.41
2023-01-10T06:04:33.402Z,100912.97
2023-01-10T06:09:37.185Z,100924.31
2023-01-10T06:14:39.799Z,100931.25
2023-01-10T06:19:42.270Z,100941.50
2023-01-10T06:24:46.075Z,100943.75
2023-01-10T06:29:48.578Z,100953.88
2023-01-10T06:34:51.039Z,100971.03
2023-01-10T06:39:54.863Z,100980.56
2023-01-10T06:44:57.412Z,100997.84
2023-01-10T06:49:59.880Z,101005.66
2023-01-10T06:55:03.723Z,101009.06
2023-01-10T07:00:09.114Z,101009.19
2023-01-10T07:05:11.742Z,101022.50
2023-01-10T07:10:15.639Z,101036.56
2023-01-10T07:15:18.212Z,101044.63
2023-01-10T07:20:20.829Z,101063.34
2023-01-10T07:25:25.416Z,101069.50
2023-01-10T07:30:27.900Z,101073.91
2023-01-10T07:35:30.668Z,101089.72
2023-01-10T07:40:34.501Z,101097.69
2023-01-10T07:45:37.102Z,101108.25
2023-01-10T07:50:39.738Z,101117.91
2023-01-10T07:55:45.751Z,101117.91
2023-01-10T08:00:50.297Z,101124.06
2023-01-10T08:05:59.219Z,101133.56
2023-01-10T08:11:03.494Z,101141.53
2023-01-10T08:16:07.073Z,101151.19
2023-01-10T08:21:10.521Z,101155.63
2023-01-10T08:26:14.360Z,101166.22
2023-01-10T08:31:16.859Z,101171.53
2023-01-10T08:36:22.112Z,101164.72
2023-01-10T08:41:25.983Z,101164.97
2023-01-10T08:46:28.506Z,101182.56
2023-01-10T08:51:31.157Z,101182.69
2023-01-10T08:56:36.098Z,101187.34
2023-01-10T09:01:38.695Z,101189.41
2023-01-10T09:06:41.222Z,101201.00
2023-01-10T09:11:45.033Z,101210.88
2023-01-10T09:16:51.528Z,101202.34
2023-01-10T09:21:53.976Z,101217.25
2023-01-10T09:26:57.809Z,101219.22
2023-01-10T09:32:00.399Z,101231.34
2023-01-10T09:37:02.907Z,101233.63
2023-01-10T09:42:21.847Z,101237.84
2023-01-10T09:47:34.407Z,101244.88
2023-01-10T09:52:43.120Z,101240.69
2023-01-10T09:57:47.272Z,101253.75
2023-01-10T10:02:53.496Z,101253.75
2023-01-10T10:07:59.602Z,101259.88
2023-01-10T10:13:26.387Z,101274.44
2023-01-10T10:18:38.041Z,101277.72
2023-01-10T10:23:53.843Z,101290.47
2023-01-10T10:29:32.330Z,101291.38
2023-01-10T10:34:40.744Z,101272.63
2023-01-10T10:39:48.427Z,101254.78
2023-01-10T10:44:55.400Z,101246.38
2023-01-10T10:50:07.898Z,101249.19
2023-01-10T10:55:14.798Z,101250.38
2023-01-10T11:00:20.894Z,101246.03
2023-01-10T11:05:33.312Z,101242.75
2023-01-10T11:10:36.733Z,101271.84
2023-01-10T11:15:42.126Z,101283.69
2023-01-10T11:20:51.994Z,101298.72
2023-01-10T11:25:54.799Z,101293.72
2023-01-10T11:30:58.990Z,101299.06
2023-01-10T11:36:05.537Z,101296.78
2023-01-10T11:41:27.104Z,101286.31
2023-01-10T11:46:29.625Z,101299.28
2023-01-10T11:51:37.393Z,101311.81
2023-01-10T11:56:41.532Z,101313.53
2023-01-10T12:01:46.583Z,101309.06
2023-01-10T12:06:53.584Z,101303.72
2023-01-10T12:12:03.454Z,101296.94
2023-01-10T12:17:05.996Z,101307.13
2023-01-10T12:22:15.758Z,101308.84
2023-01-10T12:27:19.843Z,101315.13
2023-01-10T12:32:27.237Z,101327.50
2023-01-10T12:37:38.261Z,101324.91
2023-01-10T12:43:09.937Z,101319.44
2023-01-10T12:48:22.351Z,101325.34
2023-01-10T12:53:32.623Z,101335.81
2023-01-10T12:58:44.024Z,101327.84
2023-01-10T13:03:50.719Z,101334.81
2023-01-10T13:08:55.267Z,101335.81
2023-01-10T13:14:01.817Z,101336.88
2023-01-10T13:19:24.801Z,101337.75
2023-01-10T13:24:29.359Z,101345.63
2023-01-10T13:29:39.426Z,101345.94
2023-01-10T13:34:42.156Z,101342.53
2023-01-10T13:39:53.544Z,101335.72
2023-01-10T13:45:19.001Z,101345.59
2023-01-10T13:50:53.556Z,101346.53
2023-01-10T13:55:57.959Z,101341.97
2023-01-10T14:01:20.350Z,101331.50
2023-01-10T14:06:40.862Z,101340.81
2023-01-10T14:11:53.080Z,101341.75
2023-01-10T14:16:57.531Z,101341.44
2023-01-10T14:22:03.041Z,101345.63
2023-01-10T14:27:13.133Z,101348.81
2023-01-10T14:32:24.988Z,101339.94
2023-01-10T14:37:32.710Z,101348.25
2023-01-10T14:42:38.328Z,101351.44
2023-01-10T14:47:40.862Z,101349.44
2023-01-10T14:52:43.587Z,101353.44
2023-01-10T14:57:56.008Z,101349.00
2023-01-10T15:03:01.690Z,101354.00
2023-01-10T15:08:21.443Z,101360.03
2023-01-10T15:13:28.695Z,101355.59
2023-01-10T15:18:38.392Z,101342.38
2023-01-10T15:23:42.745Z,101358.06
2023-01-10T15:28:50.148Z,101348.19
2023-01-10T15:33:56.618Z,101355.00
2023-01-10T15:38:59.231Z,101353.88
2023-01-10T15:44:24.349Z,101353.75
2023-01-10T15:49:28.040Z,101353.16
2023-01-10T15:54:33.527Z,101349.41
2023-01-10T15:59:40.761Z,101355.56
2023-01-10T16:04:46.068Z,101360.53
2023-01-10T16:09:52.428Z,101347.34
2023-01-10T16:14:57.599Z,101356.09
2023-01-10T16:20:00.136Z,101351.69
2023-01-10T16:25:02.670Z,101347.25
2023-01-10T16:30:07.615Z,101337.56
2023-01-10T16:35:11.988Z,101345.28
2023-01-10T16:40:20.912Z,101339.06
2023-01-10T16:45:24.824Z,101355.84
2023-01-10T16:50:27.564Z,101349.94
2023-01-10T16:55:38.214Z,101344.16
2023-01-10T17:00:44.181Z,101348.81
2023-01-10T17:05:46.790Z,101338.72
2023-01-10T17:10:53.580Z,101337.25
2023-01-10T17:15:58.461Z,101329.19
2023-01-10T17:21:00.975Z,101331.69
2023-01-10T17:26:06.307Z,101322.72
2023-01-10T17:31:10.156Z,101313.63
2023-01-10T17:36:12.676Z,101313.75
2023-01-10T17:41:15.504Z,101311.28
2023-01-10T17:46:22.190Z,101305.81
2023-01-10T17:51:25.490Z,101304.66
2023-01-10T17:56:27.969Z,101296.66
2023-01-10T18:01:32.013Z,101293.13
2023-01-10T18:06:34.593Z,101283.25
2023-01-10T18:11:37.390Z,101274.66
2023-01-10T18:16:41.290Z,101269.78
2023-01-10T18:21:44.195Z,101262.63
2023-01-10T18:26:47.526Z,101263.03
2023-01-10T18:31:51.342Z,101251.72
2023-01-10T18:36:53.812Z,101248.44
2023-01-10T18:41:56.971Z,101249.00
2023-01-10T18:47:00.825Z,101246.75
2023-01-10T18:52:03.350Z,101244.72
2023-01-10T18:57:05.883Z,101231.50
2023-01-10T19:02:12.414Z,101226.84
2023-01-10T19:07:14.955Z,101224.34
2023-01-10T19:12:17.438Z,101211.06
2023-01-10T19:17:22.254Z,101209.38
2023-01-10T19:22:24.855Z,101207.03
2023-01-10T19:27:28.500Z,101195.97
2023-01-10T19:32:34.316Z,101197.13
2023-01-10T19:37:36.907Z,101182.34
2023-01-10T19:42:39.637Z,101180.84
2023-01-10T19:47:43.454Z,101179.06
2023-01-10T19:52:46.507Z,101171.56
2023-01-10T19:57:48.979Z,101165.75
2023-01-10T20:02:52.992Z,101167.59
2023-01-10T20:07:55.508Z,101156.44
2023-01-10T20:12:58.018Z,101154.03
2023-01-10T20:18:01.943Z,101157.09
2023-01-10T20:23:05.866Z,101153.34
2023-01-10T20:28:08.371Z,101152.44
2023-01-10T20:33:12.266Z,101134.94
2023-01-10T20:38:14.740Z,101131.41
2023-01-10T20:43:17.695Z,101123.34
2023-01-10T20:48:21.743Z,101111.78
2023-01-10T20:53:24.346Z,101106.44
2023-01-10T20:58:26.828Z,101100.16
2023-01-10T21:03:30.916Z,101098.25
2023-01-10T21:08:33.465Z,101093.59
2023-01-10T21:13:36.217Z,101083.81
2023-01-10T21:18:44.227Z,101079.38
2023-01-10T21:23:46.736Z,101057.69
2023-01-10T21:28:49.284Z,101059.41
2023-01-10T21:33:54.848Z,101048.03
2023-01-10T21:38:57.320Z,101042.81
2023-01-10T21:43:59.797Z,101023.72
2023-01-10T21:49:04.511Z,101014.06
2023-01-10T21:54:07.089Z,101015.78
2023-01-10T21:59:09.556Z,101000.22
2023-01-10T22:04:16.282Z,100995.69
2023-01-10T22:09:19.835Z,100987.06
2023-01-10T22:14:22.313Z,100969.66
2023-01-10T22:19:26.197Z,100960.00
2023-01-10T22:24:29.842Z,100956.50
2023-01-10T22:29:32.337Z,100946.72
2023-01-10T22:34:36.248Z,100936.38
2023-01-10T22:39:38.738Z,100939.72
2023-01-10T22:44:41.203Z,100929.25
2023-01-10T22:49:45.031Z,100925.72
2023-01-10T22:54:47.504Z,100920.59
2023-01-10T22:59:49.976Z,100896.31
2023-01-10T23:04:53.770Z,100906.88
2023-01-10T23:09:56.229Z,100892.25
2023-01-10T23:14:58.718Z,100890.41
2023-01-10T23:20:02.622Z,100882.38
2023-01-10T23:25:05.891Z,100878.81
2023-01-10T23:30:10.529Z,100870.88
2023-01-10T23:35:14.331Z,100862.16
2023-01-10T23:40:17.133Z,100860.53
2023-01-10T23:45:19.593Z,100856.13
2023-01-10T23:50:23.406Z,100848.06
2023-01-10T23:55:25.915Z,100834.56
